Time,TemperatureF,DewpointF,PressureIn,WindDirection,WindDirectionDegrees,WindSpeedMPH,WindSpeedGustMPH,Humidity,HourlyPrecipIn,Conditions,Clouds,dailyrainin,SoftwareType,DateUTC
2013-12-03 00:04:00,46.8,33.6,30.06,WSW,257,3.0,17.0,60,0.00,,,0.00,meteohub,2013-12-03 08:04:00,
2013-12-03 00:09:00,46.8,34.0,30.05,SSW,196,9.0,27.0,61,0.00,,,0.00,meteohub,2013-12-03 08:09:00,
2013-12-03 00:14:00,46.9,33.8,30.05,SW,232,2.0,27.0,60,0.00,,,0.00,meteohub,2013-12-03 08:14:00,
2013-12-03 00:19:00,46.9,33.8,30.06,WSW,241,15.0,27.0,60,0.00,,,0.00,meteohub,2013-12-03 08:19:00,
2013-12-03 00:24:00,47.3,33.6,30.05,West,259,15.0,18.0,59,0.00,,,0.00,meteohub,2013-12-03 08:24:00,
2013-12-03 00:29:00,47.5,33.8,30.05,NW,319,8.0,39.0,59,0.00,,,0.00,meteohub,2013-12-03 08:29:00,
2013-12-03 00:34:00,47.3,33.6,30.05,North,355,1.0,39.0,59,0.00,,,0.00,meteohub,2013-12-03 08:34:00,
2013-12-03 00:39:00,47.1,33.4,30.04,South,186,19.0,20.0,59,0.00,,,0.00,meteohub,2013-12-03 08:39:00,
2013-12-03 00:44:00,47.7,33.6,30.04,West,264,15.0,32.0,58,0.00,,,0.00,meteohub,2013-12-03 08:44:00,
2013-12-03 00:49:00,47.8,33.8,30.05,NNW,329,3.0,32.0,58,0.00,,,0.00,meteohub,2013-12-03 08:49:00,
2013-12-03 00:54:00,47.7,31.8,30.04,West,274,14.0,38.0,54,0.00,,,0.00,meteohub,2013-12-03 08:54:00,
2013-12-03 00:59:00,47.7,32.4,30.04,WNW,300,17.0,38.0,55,0.00,,,0.00,meteohub,2013-12-03 08:59:00,
2013-12-03 01:04:00,47.5,32.5,30.03,WNW,294,11.0,31.0,56,0.00,,,0.00,meteohub,2013-12-03 09:04:00,
2013-12-03 01:09:00,47.1,32.7,30.03,West,275,15.0,31.0,57,0.00,,,0.00,meteohub,2013-12-03 09:09:00,
2013-12-03 01:14:00,47.1,32.2,30.03,WNW,302,18.0,36.0,56,0.00,,,0.00,meteohub,2013-12-03 09:14:00,
2013-12-03 01:19:00,47.1,32.7,30.03,NW,320,13.0,37.0,57,0.00,,,0.00,meteohub,2013-12-03 09:19:00,
2013-12-03 01:24:00,47.1,32.2,30.02,West,271,11.0,37.0,56,0.00,,,0.00,meteohub,2013-12-03 09:24:00,
2013-12-03 01:29:00,47.1,32.2,30.01,SW,227,19.0,37.0,56,0.00,,,0.00,meteohub,2013-12-03 09:29:00,
2013-12-03 01:34:00,47.5,32.5,30.00,West,271,13.0,28.0,56,0.00,,,0.00,meteohub,2013-12-03 09:34:00,
2013-12-03 01:39:00,47.5,32.5,30.00,WSW,254,17.0,31.0,56,0.00,,,0.00,meteohub,2013-12-03 09:39:00,
2013-12-03 01:44:00,47.5,32.5,29.99,West,266,16.0,42.0,56,0.00,,,0.00,meteohub,2013-12-03 09:44:00,
2013-12-03 01:49:00,47.3,32.4,29.99,West,265,32.0,42.0,56,0.00,,,0.00,meteohub,2013-12-03 09:49:00,
2013-12-03 01:54:00,47.3,32.4,29.99,SW,222,20.0,34.0,56,0.00,,,0.00,meteohub,2013-12-03 09:54:00,
2013-12-03 01:59:00,47.7,32.4,29.99,WSW,244,30.0,41.0,55,0.00,,,0.00,meteohub,2013-12-03 09:59:00,
2013-12-03 02:04:00,47.5,32.5,29.99,West,269,12.0,41.0,56,0.00,,,0.00,meteohub,2013-12-03 10:04:00,
2013-12-03 02:09:00,47.5,32.2,29.99,WSW,244,22.0,41.0,55,0.00,,,0.00,meteohub,2013-12-03 10:09:00,
2013-12-03 02:14:00,47.7,31.3,29.99,South,190,13.0,41.0,53,0.00,,,0.00,meteohub,2013-12-03 10:14:00,
2013-12-03 02:20:00,47.7,31.3,29.99,SW,236,25.0,41.0,53,0.00,,,0.00,meteohub,2013-12-03 10:20:00,
2013-12-03 02:25:00,47.5,31.3,29.99,SSW,211,13.0,36.0,53,0.00,,,0.00,meteohub,2013-12-03 10:25:00,
2013-12-03 02:30:00,47.3,31.5,29.99,West,268,9.0,36.0,54,0.00,,,0.00,meteohub,2013-12-03 10:30:00,
2013-12-03 02:35:00,47.1,30.9,30.00,West,263,22.0,33.0,53,0.00,,,0.00,meteohub,2013-12-03 10:35:00,
2013-12-03 02:40:00,46.9,32.0,30.00,West,273,17.0,31.0,56,0.00,,,0.00,meteohub,2013-12-03 10:40:00,
2013-12-03 02:45:00,46.8,32.4,29.99,WSW,241,5.0,31.0,57,0.00,,,0.00,meteohub,2013-12-03 10:45:00,
2013-12-03 02:50:00,46.6,31.3,29.99,WNW,286,13.0,32.0,55,0.00,,,0.00,meteohub,2013-12-03 10:50:00,
2013-12-03 02:55:00,46.2,30.6,29.99,West,268,15.0,32.0,54,0.00,,,0.00,meteohub,2013-12-03 10:55:00,
2013-12-03 03:00:00,46.2,29.1,29.99,WNW,286,21.0,43.0,51,0.00,,,0.00,meteohub,2013-12-03 11:00:00,
2013-12-03 03:05:00,46.2,28.0,29.97,WSW,251,28.0,43.0,49,0.00,,,0.00,meteohub,2013-12-03 11:05:00,
2013-12-03 03:10:00,46.0,26.4,29.98,WNW,289,31.0,36.0,46,0.00,,,0.00,meteohub,2013-12-03 11:10:00,
2013-12-03 03:15:00,45.9,25.7,29.98,West,269,25.0,36.0,45,0.00,,,0.00,meteohub,2013-12-03 11:15:00,
2013-12-03 03:20:00,45.7,25.5,29.97,WSW,255,24.0,40.0,45,0.00,,,0.00,meteohub,2013-12-03 11:20:00,
2013-12-03 03:25:00,45.3,25.7,29.98,WSW,244,21.0,40.0,46,0.00,,,0.00,meteohub,2013-12-03 11:25:00,
2013-12-03 03:30:00,45.1,26.1,29.97,SSW,196,15.0,41.0,47,0.00,,,0.00,meteohub,2013-12-03 11:30:00,
2013-12-03 03:35:00,45.0,27.9,29.98,WSW,247,29.0,41.0,51,0.00,,,0.00,meteohub,2013-12-03 11:35:00,
2013-12-03 03:40:00,45.0,28.4,29.98,WSW,248,22.0,37.0,52,0.00,,,0.00,meteohub,2013-12-03 11:40:00,
2013-12-03 03:45:00,44.8,28.2,29.98,NW,306,15.0,38.0,52,0.00,,,0.00,meteohub,2013-12-03 11:45:00,
2013-12-03 03:50:00,44.8,28.2,29.97,NW,309,18.0,38.0,52,0.00,,,0.00,meteohub,2013-12-03 11:50:00,
2013-12-03 03:55:00,44.8,28.2,29.97,West,277,17.0,31.0,52,0.00,,,0.00,meteohub,2013-12-03 11:55:00,
2013-12-03 04:00:00,44.6,29.5,29.97,WSW,244,22.0,31.0,55,0.00,,,0.00,meteohub,2013-12-03 12:00:00,
2013-12-03 04:05:00,44.4,29.7,29.97,SW,229,15.0,31.0,56,0.00,,,0.00,meteohub,2013-12-03 12:05:00,
2013-12-03 04:10:00,44.4,28.8,29.98,West,279,24.0,31.0,54,0.00,,,0.00,meteohub,2013-12-03 12:10:00,
2013-12-03 04:15:00,44.4,28.4,29.97,WNW,284,13.0,30.0,53,0.00,,,0.00,meteohub,2013-12-03 12:15:00,
2013-12-03 04:20:00,44.4,28.8,29.98,WNW,292,17.0,30.0,54,0.00,,,0.00,meteohub,2013-12-03 12:20:00,
2013-12-03 04:25:00,44.2,29.1,29.97,WNW,289,9.0,34.0,55,0.00,,,0.00,meteohub,2013-12-03 12:25:00,
2013-12-03 04:30:00,43.9,29.7,29.97,WNW,294,10.0,34.0,57,0.00,,,0.00,meteohub,2013-12-03 12:30:00,
2013-12-03 04:35:00,43.5,29.7,29.96,NW,306,17.0,27.0,58,0.00,,,0.00,meteohub,2013-12-03 12:35:00,
2013-12-03 04:40:00,43.7,29.5,29.96,WNW,284,16.0,24.0,57,0.00,,,0.00,meteohub,2013-12-03 12:40:00,
2013-12-03 04:45:00,44.1,29.3,29.96,NW,318,18.0,24.0,56,0.00,,,0.00,meteohub,2013-12-03 12:45:00,
2013-12-03 04:50:00,44.1,29.3,29.96,NW,307,12.0,22.0,56,0.00,,,0.00,meteohub,2013-12-03 12:50:00,
2013-12-03 04:55:00,43.9,29.7,29.97,NW,306,14.0,21.0,57,0.00,,,0.00,meteohub,2013-12-03 12:55:00,
2013-12-03 05:01:00,43.5,29.7,29.96,NNW,339,12.0,21.0,58,0.00,,,0.00,meteohub,2013-12-03 13:01:00,
2013-12-03 05:06:00,43.5,29.7,29.96,NW,319,8.0,19.0,58,0.00,,,0.00,meteohub,2013-12-03 13:06:00,
2013-12-03 05:11:00,43.3,29.5,29.96,NW,318,10.0,20.0,58,0.00,,,0.00,meteohub,2013-12-03 13:11:00,
2013-12-03 05:16:00,43.5,29.7,29.96,North,355,4.0,23.0,58,0.00,,,0.00,meteohub,2013-12-03 13:16:00,
2013-12-03 05:21:00,43.2,29.8,29.96,NW,313,12.0,23.0,59,0.00,,,0.00,meteohub,2013-12-03 13:21:00,
2013-12-03 05:26:00,43.0,30.0,29.96,WNW,301,5.0,29.0,60,0.00,,,0.00,meteohub,2013-12-03 13:26:00,
2013-12-03 05:31:00,43.0,30.0,29.96,WNW,300,7.0,29.0,60,0.00,,,0.00,meteohub,2013-12-03 13:31:00,
2013-12-03 05:36:00,43.0,29.3,29.96,SW,232,8.0,19.0,58,0.00,,,0.00,meteohub,2013-12-03 13:36:00,
2013-12-03 05:41:00,43.2,29.3,29.96,WNW,299,18.0,25.0,58,0.00,,,0.00,meteohub,2013-12-03 13:41:00,
2013-12-03 05:46:00,43.2,28.9,29.96,West,271,8.0,25.0,57,0.00,,,0.00,meteohub,2013-12-03 13:46:00,
2013-12-03 05:51:00,42.8,29.5,29.96,NNW,331,16.0,25.0,59,0.00,,,0.00,meteohub,2013-12-03 13:51:00,
2013-12-03 05:56:00,42.4,30.0,29.95,NW,319,3.0,22.0,61,0.00,,,0.00,meteohub,2013-12-03 13:56:00,
2013-12-03 06:01:00,42.1,30.0,29.95,SW,221,5.0,22.0,62,0.00,,,0.00,meteohub,2013-12-03 14:01:00,
2013-12-03 06:06:00,42.3,28.9,29.96,WNW,298,13.0,24.0,59,0.00,,,0.00,meteohub,2013-12-03 14:06:00,
2013-12-03 06:11:00,42.4,29.1,29.96,NW,311,9.0,24.0,59,0.00,,,0.00,meteohub,2013-12-03 14:11:00,
2013-12-03 06:16:00,42.4,29.5,29.96,NW,315,14.0,24.0,60,0.00,,,0.00,meteohub,2013-12-03 14:16:00,
2013-12-03 06:21:00,42.4,29.1,29.96,NNW,338,15.0,23.0,59,0.00,,,0.00,meteohub,2013-12-03 14:21:00,
2013-12-03 06:26:00,42.4,28.8,29.96,NW,326,14.0,24.0,58,0.00,,,0.00,meteohub,2013-12-03 14:26:00,
2013-12-03 06:31:00,42.6,29.3,29.96,NW,305,18.0,24.0,59,0.00,,,0.00,meteohub,2013-12-03 14:31:00,
2013-12-03 06:36:00,42.6,29.7,29.97,NW,324,20.0,29.0,60,0.00,,,0.00,meteohub,2013-12-03 14:36:00,
2013-12-03 06:41:00,42.4,30.0,29.97,NNW,331,13.0,29.0,61,0.00,,,0.00,meteohub,2013-12-03 14:41:00,
2013-12-03 06:46:00,42.3,30.2,29.98,North,9,8.0,29.0,62,0.00,,,0.00,meteohub,2013-12-03 14:46:00,
2013-12-03 06:51:00,42.1,30.4,29.98,North,0,12.0,28.0,63,0.00,,,0.00,meteohub,2013-12-03 14:51:00,
2013-12-03 06:56:00,39.9,28.0,29.99,NNW,342,14.0,24.0,62,0.00,,,0.00,meteohub,2013-12-03 14:56:00,
2013-12-03 07:01:00,36.9,27.0,29.99,NNE,13,16.0,24.0,67,0.00,,,0.00,meteohub,2013-12-03 15:01:00,
2013-12-03 07:06:00,34.7,25.9,29.99,North,5,12.0,22.0,70,0.00,,,0.00,meteohub,2013-12-03 15:06:00,
2013-12-03 07:11:00,33.3,25.2,29.99,NNE,26,10.0,22.0,72,0.00,,,0.00,meteohub,2013-12-03 15:11:00,
2013-12-03 07:16:00,32.5,25.2,29.99,NNE,19,9.0,22.0,74,0.00,,,0.00,meteohub,2013-12-03 15:16:00,
2013-12-03 07:21:00,32.0,25.0,29.99,North,355,11.0,22.0,75,0.00,,,0.00,meteohub,2013-12-03 15:21:00,
2013-12-03 07:26:00,31.5,25.2,29.99,North,9,15.0,22.0,77,0.00,,,0.00,meteohub,2013-12-03 15:26:00,
2013-12-03 07:31:00,30.7,25.0,30.00,NNE,12,16.0,24.0,79,0.00,,,0.00,meteohub,2013-12-03 15:31:00,
2013-12-03 07:36:00,30.2,24.8,30.00,NNW,338,12.0,24.0,80,0.00,,,0.00,meteohub,2013-12-03 15:36:00,
2013-12-03 07:41:00,29.7,24.6,30.01,NE,39,20.0,26.0,81,0.00,,,0.00,meteohub,2013-12-03 15:41:00,
2013-12-03 07:46:00,29.1,24.6,30.01,North,355,14.0,26.0,83,0.00,,,0.00,meteohub,2013-12-03 15:46:00,
2013-12-03 07:51:00,28.6,24.4,30.02,ENE,62,0.0,26.0,84,0.00,,,0.00,meteohub,2013-12-03 15:51:00,
2013-12-03 07:56:00,28.2,24.6,30.03,North,5,8.0,24.0,86,0.00,,,0.00,meteohub,2013-12-03 15:56:00,
2013-12-03 08:02:00,27.9,24.4,30.03,North,0,6.0,16.0,87,0.00,,,0.00,meteohub,2013-12-03 16:02:00,
2013-12-03 08:07:00,27.5,24.1,30.03,NE,34,12.0,15.0,87,0.00,,,0.00,meteohub,2013-12-03 16:07:00,
2013-12-03 08:12:00,27.1,24.1,30.04,NNE,14,4.0,16.0,88,0.00,,,0.00,meteohub,2013-12-03 16:12:00,
2013-12-03 08:17:00,27.0,23.9,30.05,NNE,13,8.0,16.0,88,0.00,,,0.00,meteohub,2013-12-03 16:17:00,
2013-12-03 08:22:00,26.8,23.9,30.05,NE,40,10.0,15.0,89,0.00,,,0.00,meteohub,2013-12-03 16:22:00,
2013-12-03 08:27:00,26.4,23.5,30.06,NNE,13,7.0,14.0,89,0.00,,,0.00,meteohub,2013-12-03 16:27:00,
2013-12-03 08:32:00,26.2,23.4,30.06,NE,52,5.0,15.0,89,0.00,,,0.00,meteohub,2013-12-03 16:32:00,
2013-12-03 08:37:00,26.1,23.2,30.06,NE,52,5.0,15.0,89,0.00,,,0.00,meteohub,2013-12-03 16:37:00,
2013-12-03 08:42:00,25.7,23.2,30.06,North,350,4.0,15.0,90,0.00,,,0.00,meteohub,2013-12-03 16:42:00,
2013-12-03 08:47:00,25.7,23.2,30.06,NW,325,4.0,11.0,90,0.00,,,0.00,meteohub,2013-12-03 16:47:00,
2013-12-03 08:52:00,25.5,23.0,30.06,NNE,27,10.0,11.0,90,0.00,,,0.00,meteohub,2013-12-03 16:52:00,
2013-12-03 08:57:00,25.3,22.8,30.06,NNW,348,11.0,13.0,90,0.00,,,0.00,meteohub,2013-12-03 16:57:00,
2013-12-03 09:02:00,25.3,22.8,30.07,North,355,10.0,13.0,90,0.00,,,0.00,meteohub,2013-12-03 17:02:00,
2013-12-03 09:07:00,25.2,22.6,30.07,NNE,13,10.0,13.0,90,0.00,,,0.00,meteohub,2013-12-03 17:07:00,
2013-12-03 09:12:00,25.2,22.6,30.08,NNW,337,6.0,14.0,90,0.00,,,0.00,meteohub,2013-12-03 17:12:00,
2013-12-03 09:17:00,25.2,22.6,30.07,North,5,6.0,14.0,90,0.00,,,0.00,meteohub,2013-12-03 17:17:00,
2013-12-03 09:22:00,25.0,22.5,30.08,NNE,17,4.0,12.0,90,0.00,,,0.00,meteohub,2013-12-03 17:22:00,
2013-12-03 09:27:00,25.0,22.5,30.08,NNE,17,7.0,11.0,90,0.00,,,0.00,meteohub,2013-12-03 17:27:00,
2013-12-03 09:32:00,25.0,22.5,30.08,North,0,1.0,11.0,90,0.00,,,0.00,meteohub,2013-12-03 17:32:00,
2013-12-03 09:37:00,24.8,22.3,30.08,North,355,4.0,11.0,90,0.00,,,0.00,meteohub,2013-12-03 17:37:00,
2013-12-03 09:42:00,24.6,22.1,30.08,North,0,3.0,11.0,90,0.00,,,0.00,meteohub,2013-12-03 17:42:00,
2013-12-03 09:47:00,24.6,22.1,30.08,North,351,0.0,9.0,90,0.00,,,0.00,meteohub,2013-12-03 17:47:00,
2013-12-03 09:52:00,24.6,22.1,30.09,North,351,3.0,9.0,90,0.00,,,0.00,meteohub,2013-12-03 17:52:00,
2013-12-03 09:57:00,24.6,22.1,30.08,NNE,13,2.0,9.0,90,0.00,,,0.00,meteohub,2013-12-03 17:57:00,
2013-12-03 10:02:00,24.6,22.1,30.09,NNE,13,0.0,6.0,90,0.00,,,0.00,meteohub,2013-12-03 18:02:00,
2013-12-03 10:07:00,24.6,22.1,30.08,NNE,13,4.0,6.0,90,0.00,,,0.00,meteohub,2013-12-03 18:07:00,
2013-12-03 10:12:00,24.6,22.1,30.09,NNE,13,3.0,7.0,90,0.00,,,0.00,meteohub,2013-12-03 18:12:00,
2013-12-03 10:17:00,24.6,22.1,30.09,NNE,22,5.0,8.0,90,0.00,,,0.00,meteohub,2013-12-03 18:17:00,
2013-12-03 10:22:00,24.6,22.1,30.08,NNE,14,3.0,8.0,90,0.00,,,0.00,meteohub,2013-12-03 18:22:00,
2013-12-03 10:27:00,24.6,22.1,30.09,North,351,5.0,8.0,90,0.00,,,0.00,meteohub,2013-12-03 18:27:00,
2013-12-03 10:32:00,24.4,21.9,30.09,North,355,2.0,8.0,90,0.00,,,0.00,meteohub,2013-12-03 18:32:00,
2013-12-03 10:37:00,24.4,21.9,30.08,NNE,19,5.0,8.0,90,0.00,,,0.00,meteohub,2013-12-03 18:37:00,
2013-12-03 10:42:00,24.4,21.9,30.08,NNE,19,1.0,8.0,90,0.00,,,0.00,meteohub,2013-12-03 18:42:00,
2013-12-03 10:47:00,24.4,21.9,30.08,NNE,19,2.0,9.0,90,0.00,,,0.00,meteohub,2013-12-03 18:47:00,
2013-12-03 10:52:00,24.3,21.7,30.08,NE,36,5.0,9.0,90,0.00,,,0.00,meteohub,2013-12-03 18:52:00,
2013-12-03 10:57:00,24.3,21.7,30.08,NE,56,2.0,9.0,90,0.00,,,0.00,meteohub,2013-12-03 18:57:00,
2013-12-03 11:02:00,24.1,21.6,30.08,NNE,14,3.0,9.0,90,0.00,,,0.00,meteohub,2013-12-03 19:02:00,
2013-12-03 11:07:00,24.1,21.6,30.07,NNE,14,2.0,9.0,90,0.00,,,0.00,meteohub,2013-12-03 19:07:00,
2013-12-03 11:12:00,24.1,21.9,30.07,NNE,14,2.0,7.0,91,0.00,,,0.00,meteohub,2013-12-03 19:12:00,
2013-12-03 11:17:00,24.1,21.6,30.07,NNE,13,4.0,7.0,90,0.00,,,0.00,meteohub,2013-12-03 19:17:00,
2013-12-03 11:22:00,23.7,21.2,30.07,North,355,9.0,9.0,90,0.00,,,0.00,meteohub,2013-12-03 19:22:00,
2013-12-03 11:27:00,23.5,21.0,30.07,NNE,14,5.0,11.0,90,0.00,,,0.00,meteohub,2013-12-03 19:27:00,
2013-12-03 11:32:00,23.5,21.0,30.07,NNE,25,5.0,11.0,90,0.00,,,0.00,meteohub,2013-12-03 19:32:00,
2013-12-03 11:37:00,23.4,20.8,30.07,North,11,2.0,11.0,90,0.00,,,0.00,meteohub,2013-12-03 19:37:00,
2013-12-03 11:42:00,23.4,20.8,30.06,North,5,11.0,11.0,90,0.00,,,0.00,meteohub,2013-12-03 19:42:00,
2013-12-03 11:47:00,23.0,20.5,30.07,NNE,12,8.0,11.0,90,0.00,,,0.00,meteohub,2013-12-03 19:47:00,
2013-12-03 11:52:00,23.0,20.5,30.06,NNE,12,8.0,11.0,90,0.00,,,0.00,meteohub,2013-12-03 19:52:00,
2013-12-03 11:57:00,23.0,20.5,30.06,NNE,32,4.0,11.0,90,0.00,,,0.00,meteohub,2013-12-03 19:57:00,
2013-12-03 12:02:00,23.0,20.5,30.06,North,355,10.0,10.0,90,0.00,,,0.00,meteohub,2013-12-03 20:02:00,
2013-12-03 12:07:00,22.8,20.3,30.06,North,355,8.0,12.0,90,0.00,,,0.00,meteohub,2013-12-03 20:07:00,
2013-12-03 12:12:00,23.2,20.7,30.06,North,9,7.0,12.0,90,0.00,,,0.00,meteohub,2013-12-03 20:12:00,
2013-12-03 12:17:00,23.2,20.7,30.06,NNE,14,3.0,12.0,90,0.00,,,0.00,meteohub,2013-12-03 20:17:00,
2013-12-03 12:22:00,23.4,20.8,30.06,North,349,9.0,12.0,90,0.00,,,0.00,meteohub,2013-12-03 20:22:00,
2013-12-03 12:28:00,23.4,20.8,30.06,North,355,6.0,8.0,90,0.00,,,0.00,meteohub,2013-12-03 20:28:00,
2013-12-03 12:33:00,23.2,20.5,30.06,North,10,5.0,11.0,89,0.00,,,0.00,meteohub,2013-12-03 20:33:00,
2013-12-03 12:38:00,22.8,20.1,30.06,North,5,6.0,12.0,89,0.00,,,0.00,meteohub,2013-12-03 20:38:00,
2013-12-03 12:43:00,22.6,19.9,30.06,North,355,5.0,13.0,89,0.00,,,0.00,meteohub,2013-12-03 20:43:00,
2013-12-03 12:48:00,22.6,19.9,30.06,NNE,13,4.0,13.0,89,0.00,,,0.00,meteohub,2013-12-03 20:48:00,
2013-12-03 12:53:00,22.8,20.1,30.06,North,350,5.0,13.0,89,0.00,,,0.00,meteohub,2013-12-03 20:53:00,
2013-12-03 12:58:00,22.8,20.1,30.06,NW,317,3.0,10.0,89,0.00,,,0.00,meteohub,2013-12-03 20:58:00,
2013-12-03 13:03:00,23.0,20.3,30.06,NW,315,6.0,8.0,89,0.00,,,0.00,meteohub,2013-12-03 21:03:00,
2013-12-03 13:08:00,23.2,20.1,30.06,NW,323,4.0,9.0,88,0.00,,,0.00,meteohub,2013-12-03 21:08:00,
2013-12-03 13:13:00,23.2,19.9,30.06,NW,325,4.0,9.0,87,0.00,,,0.00,meteohub,2013-12-03 21:13:00,
2013-12-03 13:18:00,23.4,20.1,30.06,NW,321,3.0,9.0,87,0.00,,,0.00,meteohub,2013-12-03 21:18:00,
2013-12-03 13:23:00,23.5,19.9,30.06,NNW,327,5.0,6.0,86,0.00,,,0.00,meteohub,2013-12-03 21:23:00,
2013-12-03 13:28:00,23.5,19.8,30.06,NNW,344,4.0,6.0,85,0.00,,,0.00,meteohub,2013-12-03 21:28:00,
2013-12-03 13:33:00,23.4,18.7,30.06,North,355,5.0,9.0,82,0.00,,,0.00,meteohub,2013-12-03 21:33:00,
2013-12-03 13:38:00,23.4,18.7,30.06,North,350,5.0,10.0,82,0.00,,,0.00,meteohub,2013-12-03 21:38:00,
2013-12-03 13:43:00,23.4,18.3,30.06,NNE,12,4.0,10.0,81,0.00,,,0.00,meteohub,2013-12-03 21:43:00,
2013-12-03 13:48:00,23.4,18.3,30.06,North,355,6.0,10.0,81,0.00,,,0.00,meteohub,2013-12-03 21:48:00,
2013-12-03 13:53:00,23.5,18.5,30.06,NNW,344,4.0,12.0,81,0.00,,,0.00,meteohub,2013-12-03 21:53:00,
2013-12-03 13:58:00,23.5,18.3,30.06,North,0,8.0,12.0,80,0.00,,,0.00,meteohub,2013-12-03 21:58:00,
2013-12-03 14:03:00,23.7,18.1,30.06,NNW,338,5.0,12.0,79,0.00,,,0.00,meteohub,2013-12-03 22:03:00,
2013-12-03 14:08:00,23.7,18.1,30.06,NNW,342,2.0,12.0,79,0.00,,,0.00,meteohub,2013-12-03 22:08:00,
2013-12-03 14:13:00,24.1,18.5,30.06,North,0,4.0,12.0,79,0.00,,,0.00,meteohub,2013-12-03 22:13:00,
2013-12-03 14:18:00,24.1,18.1,30.06,North,355,2.0,9.0,78,0.00,,,0.00,meteohub,2013-12-03 22:18:00,
2013-12-03 14:23:00,24.3,18.3,30.06,NNW,347,5.0,8.0,78,0.00,,,0.00,meteohub,2013-12-03 22:23:00,
2013-12-03 14:28:00,24.3,18.3,30.06,North,0,4.0,8.0,78,0.00,,,0.00,meteohub,2013-12-03 22:28:00,
2013-12-03 14:34:00,24.1,18.1,30.07,NW,321,6.0,8.0,78,0.00,,,0.00,meteohub,2013-12-03 22:34:00,
2013-12-03 14:39:00,24.1,18.1,30.06,North,5,8.0,10.0,78,0.00,,,0.00,meteohub,2013-12-03 22:39:00,
2013-12-03 14:44:00,23.7,18.1,30.06,North,355,3.0,10.0,79,0.00,,,0.00,meteohub,2013-12-03 22:44:00,
2013-12-03 14:49:00,23.5,17.8,30.06,North,349,4.0,11.0,78,0.00,,,0.00,meteohub,2013-12-03 22:49:00,
2013-12-03 14:54:00,23.4,17.8,30.07,NNW,348,5.0,11.0,79,0.00,,,0.00,meteohub,2013-12-03 22:54:00,
2013-12-03 14:59:00,23.2,18.0,30.07,North,355,5.0,9.0,80,0.00,,,0.00,meteohub,2013-12-03 22:59:00,
2013-12-03 15:04:00,23.0,17.8,30.07,North,355,6.0,10.0,80,0.00,,,0.00,meteohub,2013-12-03 23:04:00,
2013-12-03 15:09:00,22.8,18.0,30.07,North,355,8.0,10.0,81,0.00,,,0.00,meteohub,2013-12-03 23:09:00,
2013-12-03 15:14:00,22.6,18.0,30.07,North,0,4.0,10.0,82,0.00,,,0.00,meteohub,2013-12-03 23:14:00,
2013-12-03 15:19:00,22.6,18.3,30.08,North,0,4.0,9.0,83,0.00,,,0.00,meteohub,2013-12-03 23:19:00,
2013-12-03 15:24:00,22.5,18.1,30.08,North,0,3.0,9.0,83,0.00,,,0.00,meteohub,2013-12-03 23:24:00,
2013-12-03 15:29:00,22.6,18.5,30.08,North,0,4.0,9.0,84,0.00,,,0.00,meteohub,2013-12-03 23:29:00,
2013-12-03 15:34:00,22.6,18.5,30.07,North,0,2.0,6.0,84,0.00,,,0.00,meteohub,2013-12-03 23:34:00,
2013-12-03 15:39:00,22.6,18.5,30.07,North,0,0.0,6.0,84,0.00,,,0.00,meteohub,2013-12-03 23:39:00,
2013-12-03 15:44:00,22.6,18.5,30.07,North,0,2.0,6.0,84,0.00,,,0.00,meteohub,2013-12-03 23:44:00,
2013-12-03 15:49:00,22.6,18.5,30.07,North,0,0.0,5.0,84,0.00,,,0.00,meteohub,2013-12-03 23:49:00,
2013-12-03 15:54:00,22.8,18.5,30.07,North,0,1.0,4.0,83,0.00,,,0.00,meteohub,2013-12-03 23:54:00,
2013-12-03 15:59:00,22.8,18.5,30.07,NW,306,4.0,4.0,83,0.00,,,0.00,meteohub,2013-12-03 23:59:00,
2013-12-03 16:04:00,22.6,18.3,30.07,WNW,294,4.0,8.0,83,0.00,,,0.00,meteohub,2013-12-04 00:04:00,
2013-12-03 16:09:00,22.6,18.5,30.07,WNW,286,6.0,8.0,84,0.00,,,0.00,meteohub,2013-12-04 00:09:00,
2013-12-03 16:14:00,22.5,18.3,30.07,West,264,3.0,8.0,84,0.00,,,0.00,meteohub,2013-12-04 00:14:00,
2013-12-03 16:19:00,22.3,18.1,30.07,WSW,255,4.0,8.0,84,0.00,,,0.00,meteohub,2013-12-04 00:19:00,
2013-12-03 16:24:00,22.1,17.8,30.07,WSW,255,4.0,7.0,83,0.00,,,0.00,meteohub,2013-12-04 00:24:00,
2013-12-03 16:29:00,21.7,17.1,30.07,North,-999,-999.0,7.0,82,0.00,,,0.00,meteohub,2013-12-04 00:29:00,
2013-12-03 16:34:00,21.2,16.5,30.07,West,265,4.0,7.0,82,0.00,,,0.00,meteohub,2013-12-04 00:34:00,
2013-12-03 16:39:00,20.8,16.2,30.07,West,263,2.0,8.0,82,0.00,,,0.00,meteohub,2013-12-04 00:39:00,
2013-12-03 16:44:00,20.7,16.0,30.07,West,263,3.0,8.0,82,0.00,,,0.00,meteohub,2013-12-04 00:44:00,
2013-12-03 16:49:00,20.1,15.4,30.07,West,262,3.0,8.0,82,0.00,,,0.00,meteohub,2013-12-04 00:49:00,
2013-12-03 16:54:00,19.9,15.3,30.07,West,261,4.0,6.0,82,0.00,,,0.00,meteohub,2013-12-04 00:54:00,
2013-12-03 16:59:00,19.6,14.7,30.08,West,261,4.0,6.0,81,0.00,,,0.00,meteohub,2013-12-04 00:59:00,
2013-12-03 17:04:00,19.2,14.4,30.08,West,260,3.0,6.0,81,0.00,,,0.00,meteohub,2013-12-04 01:04:00,
2013-12-03 17:09:00,19.0,14.2,30.08,West,261,3.0,6.0,81,0.00,,,0.00,meteohub,2013-12-04 01:09:00,
2013-12-03 17:14:00,18.7,13.8,30.08,WNW,282,4.0,6.0,81,0.00,,,0.00,meteohub,2013-12-04 01:14:00,
2013-12-03 17:20:00,18.3,13.5,30.08,WNW,290,3.0,6.0,81,0.00,,,0.00,meteohub,2013-12-04 01:20:00,
2013-12-03 17:25:00,18.0,13.5,30.08,WNW,290,3.0,6.0,82,0.00,,,0.00,meteohub,2013-12-04 01:25:00,
2013-12-03 17:30:00,17.8,13.3,30.08,WNW,298,3.0,6.0,82,0.00,,,0.00,meteohub,2013-12-04 01:30:00,
2013-12-03 17:35:00,17.8,13.5,30.09,WNW,298,2.0,6.0,83,0.00,,,0.00,meteohub,2013-12-04 01:35:00,
2013-12-03 17:40:00,17.4,13.1,30.09,WNW,297,2.0,7.0,83,0.00,,,0.00,meteohub,2013-12-04 01:40:00,
2013-12-03 17:45:00,17.2,12.7,30.08,West,273,7.0,7.0,82,0.00,,,0.00,meteohub,2013-12-04 01:45:00,
2013-12-03 17:50:00,17.2,12.9,30.08,WSW,256,4.0,8.0,83,0.00,,,0.00,meteohub,2013-12-04 01:50:00,
2013-12-03 17:55:00,17.4,12.9,30.08,WSW,250,5.0,8.0,82,0.00,,,0.00,meteohub,2013-12-04 01:55:00,
2013-12-03 18:00:00,17.4,12.9,30.08,WSW,240,5.0,8.0,82,0.00,,,0.00,meteohub,2013-12-04 02:00:00,
2013-12-03 18:05:00,17.4,12.9,30.08,WSW,248,4.0,8.0,82,0.00,,,0.00,meteohub,2013-12-04 02:05:00,
2013-12-03 18:10:00,17.8,12.9,30.08,WSW,246,5.0,8.0,81,0.00,,,0.00,meteohub,2013-12-04 02:10:00,
2013-12-03 18:15:00,18.0,13.1,30.08,WSW,248,5.0,8.0,81,0.00,,,0.00,meteohub,2013-12-04 02:15:00,
2013-12-03 18:20:00,17.8,12.7,30.08,WSW,248,7.0,8.0,80,0.00,,,0.00,meteohub,2013-12-04 02:20:00,
2013-12-03 18:25:00,17.8,12.7,30.08,WSW,247,3.0,8.0,80,0.00,,,0.00,meteohub,2013-12-04 02:25:00,
2013-12-03 18:30:00,18.0,12.9,30.08,WSW,241,4.0,8.0,80,0.00,,,0.00,meteohub,2013-12-04 02:30:00,
2013-12-03 18:35:00,18.1,13.1,30.08,WSW,241,6.0,8.0,80,0.00,,,0.00,meteohub,2013-12-04 02:35:00,
2013-12-03 18:40:00,18.3,13.3,30.08,SW,236,1.0,8.0,80,0.00,,,0.00,meteohub,2013-12-04 02:40:00,
2013-12-03 18:45:00,18.7,13.5,30.08,WSW,241,2.0,8.0,80,0.00,,,0.00,meteohub,2013-12-04 02:45:00,
2013-12-03 18:50:00,18.9,13.5,30.08,WSW,255,3.0,6.0,79,0.00,,,0.00,meteohub,2013-12-04 02:50:00,
2013-12-03 18:55:00,19.2,13.8,30.08,SW,223,2.0,6.0,79,0.00,,,0.00,meteohub,2013-12-04 02:55:00,
2013-12-03 19:00:00,19.4,14.0,30.08,WSW,238,2.0,5.0,79,0.00,,,0.00,meteohub,2013-12-04 03:00:00,
2013-12-03 19:05:00,19.6,14.2,30.08,WSW,244,4.0,5.0,79,0.00,,,0.00,meteohub,2013-12-04 03:05:00,
2013-12-03 19:10:00,19.6,14.2,30.08,WSW,252,3.0,5.0,79,0.00,,,0.00,meteohub,2013-12-04 03:10:00,
2013-12-03 19:15:00,19.4,14.0,30.08,WSW,252,2.0,5.0,79,0.00,,,0.00,meteohub,2013-12-04 03:15:00,
2013-12-03 19:20:00,19.6,14.4,30.08,WSW,252,0.0,4.0,80,0.00,,,0.00,meteohub,2013-12-04 03:20:00,
2013-12-03 19:25:00,19.4,14.2,30.08,WSW,252,0.0,3.0,80,0.00,,,0.00,meteohub,2013-12-04 03:25:00,
2013-12-03 19:30:00,19.4,14.2,30.08,WSW,252,0.0,2.0,80,0.00,,,0.00,meteohub,2013-12-04 03:30:00,
2013-12-03 19:35:00,19.4,14.5,30.08,WSW,252,0.0,2.0,81,0.00,,,0.00,meteohub,2013-12-04 03:35:00,
2013-12-03 19:40:00,19.2,14.4,30.08,WSW,252,0.0,1.0,81,0.00,,,0.00,meteohub,2013-12-04 03:40:00,
2013-12-03 19:45:00,19.2,14.4,30.08,WSW,252,1.0,2.0,81,0.00,,,0.00,meteohub,2013-12-04 03:45:00,
2013-12-03 19:50:00,19.2,14.7,30.08,SW,218,3.0,4.0,82,0.00,,,0.00,meteohub,2013-12-04 03:50:00,
2013-12-03 19:55:00,19.2,14.7,30.08,SW,217,0.0,4.0,82,0.00,,,0.00,meteohub,2013-12-04 03:55:00,
2013-12-03 20:00:00,19.2,14.4,30.08,SW,217,1.0,4.0,81,0.00,,,0.00,meteohub,2013-12-04 04:00:00,
2013-12-03 20:05:00,19.0,14.2,30.08,SW,217,1.0,4.0,81,0.00,,,0.00,meteohub,2013-12-04 04:05:00,
2013-12-03 20:10:00,19.0,14.2,30.08,SW,218,3.0,3.0,81,0.00,,,0.00,meteohub,2013-12-04 04:10:00,
2013-12-03 20:15:00,19.0,14.2,30.08,NW,326,2.0,4.0,81,0.00,,,0.00,meteohub,2013-12-04 04:15:00,
2013-12-03 20:20:00,19.0,14.2,30.09,NNW,327,4.0,5.0,81,0.00,,,0.00,meteohub,2013-12-04 04:20:00,
2013-12-03 20:25:00,18.9,14.0,30.08,NNW,327,0.0,5.0,81,0.00,,,0.00,meteohub,2013-12-04 04:25:00,
2013-12-03 20:30:00,18.9,14.4,30.08,NNW,327,3.0,5.0,82,0.00,,,0.00,meteohub,2013-12-04 04:30:00,
2013-12-03 20:36:00,18.7,14.2,30.09,NW,309,2.0,5.0,82,0.00,,,0.00,meteohub,2013-12-04 04:36:00,
2013-12-03 20:41:00,18.9,14.4,30.08,WNW,296,4.0,5.0,82,0.00,,,0.00,meteohub,2013-12-04 04:41:00,
2013-12-03 20:46:00,19.0,14.5,30.08,West,280,2.0,6.0,82,0.00,,,0.00,meteohub,2013-12-04 04:46:00,
2013-12-03 20:51:00,19.2,14.7,30.08,West,280,1.0,6.0,82,0.00,,,0.00,meteohub,2013-12-04 04:51:00,
2013-12-03 20:56:00,19.2,14.7,30.08,West,280,2.0,6.0,82,0.00,,,0.00,meteohub,2013-12-04 04:56:00,
2013-12-03 21:01:00,19.2,14.4,30.09,NNE,24,4.0,6.0,81,0.00,,,0.00,meteohub,2013-12-04 05:01:00,
2013-12-03 21:02:00,19.2,14.4,30.09,NNE,24,3.0,6.0,81,0.00,,,0.00,meteohub,2013-12-04 05:02:00,
2013-12-03 21:03:00,19.0,14.2,30.09,NNE,24,1.0,6.0,81,0.00,,,0.00,meteohub,2013-12-04 05:03:00,
2013-12-03 21:05:00,19.0,14.2,30.09,NNE,24,0.0,7.0,81,0.00,,,0.00,meteohub,2013-12-04 05:05:00,
2013-12-03 21:10:00,18.9,14.4,30.08,NNE,24,1.0,7.0,82,0.00,,,0.00,meteohub,2013-12-04 05:10:00,
2013-12-03 21:14:00,18.9,14.4,30.08,NNE,24,0.0,7.0,82,0.00,,,0.00,meteohub,2013-12-04 05:14:00,
2013-12-03 21:19:00,18.5,14.0,30.08,NNE,17,1.0,5.0,82,0.00,,,0.00,meteohub,2013-12-04 05:19:00,
2013-12-03 21:24:00,18.3,14.0,30.08,NNE,17,0.0,4.0,83,0.00,,,0.00,meteohub,2013-12-04 05:24:00,
2013-12-03 21:27:00,18.3,14.0,30.08,NNE,15,2.0,4.0,83,0.00,,,0.00,meteohub,2013-12-04 05:27:00,
2013-12-03 21:32:00,18.3,14.4,30.08,NW,312,5.0,5.0,84,0.00,,,0.00,meteohub,2013-12-04 05:32:00,
2013-12-03 21:37:00,18.3,14.0,30.08,West,275,3.0,5.0,83,0.00,,,0.00,meteohub,2013-12-04 05:37:00,
2013-12-03 21:42:00,18.3,14.0,30.08,West,281,4.0,7.0,83,0.00,,,0.00,meteohub,2013-12-04 05:42:00,
2013-12-03 21:47:00,18.5,14.2,30.08,NW,309,5.0,7.0,83,0.00,,,0.00,meteohub,2013-12-04 05:47:00,
2013-12-03 21:52:00,18.7,14.2,30.09,NW,315,4.0,7.0,82,0.00,,,0.00,meteohub,2013-12-04 05:52:00,
2013-12-03 21:57:00,18.7,13.8,30.09,NW,319,4.0,9.0,81,0.00,,,0.00,meteohub,2013-12-04 05:57:00,
2013-12-03 22:02:00,18.9,14.0,30.08,NW,304,5.0,9.0,81,0.00,,,0.00,meteohub,2013-12-04 06:02:00,
2013-12-03 22:07:00,18.9,14.0,30.08,WNW,303,3.0,9.0,81,0.00,,,0.00,meteohub,2013-12-04 06:07:00,
2013-12-03 22:12:00,18.9,14.4,30.09,WNW,303,2.0,7.0,82,0.00,,,0.00,meteohub,2013-12-04 06:12:00,
2013-12-03 22:17:00,18.7,14.2,30.09,WNW,303,4.0,5.0,82,0.00,,,0.00,meteohub,2013-12-04 06:17:00,
2013-12-03 22:22:00,18.7,14.2,30.09,NW,304,3.0,5.0,82,0.00,,,0.00,meteohub,2013-12-04 06:22:00,
2013-12-03 22:27:00,18.7,14.2,30.09,WNW,303,4.0,5.0,82,0.00,,,0.00,meteohub,2013-12-04 06:27:00,
2013-12-03 22:32:00,18.7,14.2,30.09,NW,306,5.0,7.0,82,0.00,,,0.00,meteohub,2013-12-04 06:32:00,
2013-12-03 22:37:00,18.7,13.8,30.09,WNW,293,4.0,8.0,81,0.00,,,0.00,meteohub,2013-12-04 06:37:00,
2013-12-03 22:42:00,18.9,14.0,30.09,WNW,302,4.0,8.0,81,0.00,,,0.00,meteohub,2013-12-04 06:42:00,
2013-12-03 22:47:00,18.9,14.0,30.09,WNW,302,3.0,8.0,81,0.00,,,0.00,meteohub,2013-12-04 06:47:00,
2013-12-03 22:52:00,18.9,14.0,30.09,NW,325,2.0,8.0,81,0.00,,,0.00,meteohub,2013-12-04 06:52:00,
2013-12-03 22:57:00,18.7,13.8,30.09,NW,325,0.0,7.0,81,0.00,,,0.00,meteohub,2013-12-04 06:57:00,
2013-12-03 23:02:00,18.7,14.2,30.09,NW,325,0.0,5.0,82,0.00,,,0.00,meteohub,2013-12-04 07:02:00,
2013-12-03 23:07:00,18.5,14.0,30.09,NW,325,1.0,3.0,82,0.00,,,0.00,meteohub,2013-12-04 07:07:00,
2013-12-03 23:12:00,18.3,13.8,30.09,NW,325,3.0,4.0,82,0.00,,,0.00,meteohub,2013-12-04 07:12:00,
2013-12-03 23:17:00,18.3,13.8,30.09,NW,325,2.0,4.0,82,0.00,,,0.00,meteohub,2013-12-04 07:17:00,
2013-12-03 23:22:00,18.1,13.6,30.09,NW,325,3.0,4.0,82,0.00,,,0.00,meteohub,2013-12-04 07:22:00,
2013-12-03 23:27:00,18.1,13.6,30.09,NW,304,5.0,6.0,82,0.00,,,0.00,meteohub,2013-12-04 07:27:00,
2013-12-03 23:32:00,18.0,13.1,30.09,NW,306,8.0,8.0,81,0.00,,,0.00,meteohub,2013-12-04 07:32:00,
2013-12-03 23:37:00,18.0,13.1,30.09,WNW,282,4.0,9.0,81,0.00,,,0.00,meteohub,2013-12-04 07:37:00,
2013-12-03 23:42:00,18.0,13.1,30.09,West,274,4.0,10.0,81,0.00,,,0.00,meteohub,2013-12-04 07:42:00,
2013-12-03 23:47:00,18.0,13.1,30.09,WNW,287,5.0,10.0,81,0.00,,,0.00,meteohub,2013-12-04 07:47:00,
2013-12-03 23:52:00,18.3,13.3,30.09,WNW,289,5.0,10.0,80,0.00,,,0.00,meteohub,2013-12-04 07:52:00,
2013-12-03 23:57:00,18.7,13.5,30.09,WNW,296,5.0,10.0,80,0.00,,,0.00,meteohub,2013-12-04 07:57:00,